createdAt,value
2023-01-25T00:01:23.880Z,8.06
2023-01-25T00:04:09.310Z,8.08
2023-01-25T00:06:55.380Z,8.07
2023-01-25T00:09:40.618Z,8.08
2023-01-25T00:12:26.139Z,8.07
2023-01-25T00:15:12.036Z,8.11
2023-01-25T00:17:57.368Z,8.11
2023-01-25T00:20:42.753Z,8.13
2023-01-25T00:23:28.026Z,8.14
2023-01-25T00:26:14.453Z,8.16
2023-01-25T00:29:00.580Z,8.19
2023-01-25T00:31:58.829Z,8.17
2023-01-25T00:34:48.460Z,8.19
2023-01-25T00:37:39.539Z,8.21
2023-01-25T00:40:24.850Z,8.22
2023-01-25T00:43:10.359Z,8.22
2023-01-25T00:46:02.124Z,8.23
2023-01-25T00:48:48.752Z,8.24
2023-01-25T00:51:34.317Z,8.23
2023-01-25T00:54:20.691Z,8.23
2023-01-25T00:57:07.224Z,8.23
2023-01-25T00:59:53.114Z,8.24
2023-01-25T01:02:39.280Z,8.26
2023-01-25T01:05:24.627Z,8.26
2023-01-25T01:08:11.318Z,8.26
2023-01-25T01:11:02.080Z,8.25
2023-01-25T01:13:47.510Z,8.23
2023-01-25T01:16:32.951Z,8.21
2023-01-25T01:19:18.931Z,8.17
2023-01-25T01:22:04.562Z,8.14
2023-01-25T01:24:50.157Z,8.13
2023-01-25T01:27:37.186Z,8.12
2023-01-25T01:30:22.430Z,8.10
2023-01-25T01:33:08.671Z,8.08
2023-01-25T01:35:54.271Z,8.06
2023-01-25T01:38:39.783Z,8.05
2023-01-25T01:41:25.185Z,8.02
2023-01-25T01:44:17.216Z,8.00
2023-01-25T01:47:05.661Z,7.99
2023-01-25T01:50:02.979Z,7.97
2023-01-25T01:52:51.119Z,7.96
2023-01-25T01:55:37.560Z,7.96
2023-01-25T01:58:23.445Z,7.96
2023-01-25T02:01:09.184Z,7.94
2023-01-25T02:03:55.510Z,7.94
2023-01-25T02:06:51.665Z,7.91
2023-01-25T02:09:37.748Z,7.87
2023-01-25T02:12:24.196Z,7.83
2023-01-25T02:15:10.779Z,7.82
2023-01-25T02:17:56.885Z,7.81
2023-01-25T02:20:54.135Z,7.82
2023-01-25T02:24:04.774Z,7.81
2023-01-25T02:26:50.407Z,7.80
2023-01-25T02:29:37.257Z,7.81
2023-01-25T02:32:22.515Z,7.81
2023-01-25T02:35:09.052Z,7.80
2023-01-25T02:37:54.861Z,7.81
2023-01-25T02:40:48.979Z,7.81
2023-01-25T02:43:35.647Z,7.82
2023-01-25T02:46:28.759Z,7.81
2023-01-25T02:49:15.493Z,7.80
2023-01-25T02:52:00.938Z,7.82
2023-01-25T02:54:46.198Z,7.83
2023-01-25T02:57:31.559Z,7.83
2023-01-25T03:00:17.632Z,7.81
2023-01-25T03:03:04.285Z,7.81
2023-01-25T03:05:49.926Z,7.83
2023-01-25T03:08:35.907Z,7.85
2023-01-25T03:11:21.418Z,7.86
2023-01-25T03:14:06.821Z,7.86
2023-01-25T03:16:52.010Z,7.88
2023-01-25T03:19:40.383Z,7.88
2023-01-25T03:22:26.117Z,7.87
2023-01-25T03:25:11.968Z,7.87
2023-01-25T03:28:03.418Z,7.87
2023-01-25T03:30:53.465Z,7.89
2023-01-25T03:33:39.932Z,7.90
2023-01-25T03:36:26.422Z,7.90
2023-01-25T03:39:12.379Z,7.90
2023-01-25T03:42:02.220Z,7.92
2023-01-25T03:44:47.533Z,7.92
2023-01-25T03:47:32.877Z,7.93
2023-01-25T03:50:18.254Z,7.93
2023-01-25T03:53:10.108Z,7.94
2023-01-25T03:56:02.169Z,7.95
2023-01-25T03:58:49.231Z,7.96
2023-01-25T04:01:34.699Z,7.96
2023-01-25T04:04:21.044Z,7.96
2023-01-25T04:07:07.608Z,7.98
2023-01-25T04:09:53.985Z,7.98
2023-01-25T04:12:39.331Z,7.99
2023-01-25T04:15:25.227Z,7.99
2023-01-25T04:18:13.141Z,8.00
2023-01-25T04:20:58.456Z,7.99
2023-01-25T04:23:45.237Z,7.99
2023-01-25T04:26:31.078Z,8.00
2023-01-25T04:29:23.673Z,8.00
2023-01-25T04:32:13.901Z,8.00
2023-01-25T04:34:59.818Z,7.99
2023-01-25T04:37:58.631Z,7.98
2023-01-25T04:40:52.119Z,8.00
2023-01-25T04:43:37.653Z,8.02
2023-01-25T04:46:27.390Z,8.02
2023-01-25T04:49:13.348Z,8.02
2023-01-25T04:51:58.751Z,8.02
2023-01-25T04:54:44.107Z,8.03
2023-01-25T04:57:30.637Z,8.02
2023-01-25T05:00:17.550Z,8.02
2023-01-25T05:03:03.550Z,8.02
2023-01-25T05:05:49.288Z,8.00
2023-01-25T05:08:39.434Z,8.01
2023-01-25T05:11:24.865Z,8.02
2023-01-25T05:14:19.848Z,8.02
2023-01-25T05:17:07.110Z,8.03
2023-01-25T05:19:52.771Z,8.03
2023-01-25T05:22:40.701Z,8.03
2023-01-25T05:25:44.600Z,8.02
2023-01-25T05:28:30.327Z,8.01
2023-01-25T05:31:35.780Z,7.99
2023-01-25T05:34:21.224Z,8.00
2023-01-25T05:37:08.963Z,8.02
2023-01-25T05:39:58.616Z,8.00
2023-01-25T05:42:44.351Z,8.02
2023-01-25T05:45:35.148Z,8.02
2023-01-25T05:48:22.444Z,8.00
2023-01-25T05:51:07.963Z,8.01
2023-01-25T05:53:56.713Z,8.02
2023-01-25T05:56:43.859Z,8.00
2023-01-25T05:59:29.493Z,8.02
2023-01-25T06:02:17.277Z,8.02
2023-01-25T06:05:05.142Z,8.02
2023-01-25T06:07:50.797Z,8.01
2023-01-25T06:10:37.504Z,8.01
2023-01-25T06:13:24.238Z,8.01
2023-01-25T06:16:10.093Z,7.99
2023-01-25T06:19:01.646Z,8.00
2023-01-25T06:22:02.524Z,7.99
2023-01-25T06:24:48.050Z,7.99
2023-01-25T06:27:33.339Z,8.02
2023-01-25T06:30:18.746Z,8.01
2023-01-25T06:33:04.193Z,8.00
2023-01-25T06:35:49.490Z,7.97
2023-01-25T06:38:34.649Z,7.96
2023-01-25T06:41:20.522Z,7.96
2023-01-25T06:44:05.842Z,7.98
2023-01-25T06:46:51.338Z,7.99
2023-01-25T06:49:36.529Z,8.00
2023-01-25T06:52:22.044Z,8.00
2023-01-25T06:55:10.473Z,8.00
2023-01-25T06:57:56.126Z,8.00
2023-01-25T07:00:41.975Z,8.00
2023-01-25T07:03:27.443Z,8.00
2023-01-25T07:06:13.286Z,8.02
2023-01-25T07:09:04.051Z,8.04
2023-01-25T07:11:53.177Z,8.03
2023-01-25T07:14:38.430Z,8.04
2023-01-25T07:17:24.025Z,8.03
2023-01-25T07:20:10.192Z,8.04
2023-01-25T07:22:55.366Z,8.02
2023-01-25T07:25:48.378Z,8.00
2023-01-25T07:28:33.842Z,7.99
2023-01-25T07:31:20.225Z,7.98
2023-01-25T07:34:05.434Z,7.94
2023-01-25T07:36:51.421Z,7.91
2023-01-25T07:39:36.602Z,7.92
2023-01-25T07:42:22.046Z,7.92
2023-01-25T07:45:18.897Z,7.91
2023-01-25T07:48:11.012Z,7.94
2023-01-25T07:51:22.846Z,7.92
2023-01-25T07:54:11.929Z,7.91
2023-01-25T07:56:58.345Z,7.92
2023-01-25T07:59:43.858Z,7.94
2023-01-25T08:02:29.649Z,7.94
2023-01-25T08:05:15.035Z,7.92
2023-01-25T08:08:00.578Z,7.85
2023-01-25T08:10:45.985Z,7.89
2023-01-25T08:13:31.260Z,7.91
2023-01-25T08:16:19.650Z,7.94
2023-01-25T08:19:05.279Z,7.94
2023-01-25T08:21:51.103Z,7.96
2023-01-25T08:24:36.816Z,7.96
2023-01-25T08:27:22.780Z,7.97
2023-01-25T08:30:08.925Z,8.00
2023-01-25T08:32:54.573Z,8.00
2023-01-25T08:35:40.003Z,7.99
2023-01-25T08:38:25.431Z,8.00
2023-01-25T08:41:19.846Z,8.00
2023-01-25T08:44:06.112Z,8.00
2023-01-25T08:46:52.270Z,8.00
2023-01-25T08:49:38.547Z,7.99
2023-01-25T08:52:24.205Z,7.99
2023-01-25T08:55:09.930Z,8.00
2023-01-25T08:57:56.708Z,8.00
2023-01-25T09:00:44.334Z,8.00
2023-01-25T09:03:29.628Z,8.03
2023-01-25T09:06:15.648Z,8.02
2023-01-25T09:09:00.851Z,8.02
2023-01-25T09:11:46.670Z,8.01
2023-01-25T09:14:32.216Z,8.03
2023-01-25T09:17:17.538Z,8.06
2023-01-25T09:20:03.083Z,8.07
2023-01-25T09:22:48.414Z,8.08
2023-01-25T09:25:34.822Z,8.09
2023-01-25T09:28:20.167Z,8.13
2023-01-25T09:31:20.981Z,8.16
2023-01-25T09:34:26.171Z,8.18
2023-01-25T09:37:11.644Z,8.22
2023-01-25T09:39:57.066Z,8.22
2023-01-25T09:43:05.856Z,8.24
2023-01-25T09:45:51.602Z,8.26
2023-01-25T09:48:53.840Z,8.26
2023-01-25T09:52:00.273Z,8.28
2023-01-25T09:54:47.505Z,8.28
2023-01-25T09:57:41.431Z,8.28
2023-01-25T10:00:30.524Z,8.26
2023-01-25T10:03:32.519Z,8.22
2023-01-25T10:06:20.741Z,8.18
2023-01-25T10:09:19.005Z,8.18
2023-01-25T10:12:20.724Z,8.17
2023-01-25T10:15:17.676Z,8.17
2023-01-25T10:18:53.624Z,8.13
2023-01-25T10:21:41.176Z,8.13
2023-01-25T10:25:03.781Z,8.17
2023-01-25T10:28:04.583Z,8.16
2023-01-25T10:30:56.070Z,8.17
2023-01-25T10:33:45.185Z,8.18
2023-01-25T10:36:31.586Z,8.22
2023-01-25T10:39:19.724Z,8.24
2023-01-25T10:42:11.947Z,8.29
2023-01-25T10:44:57.497Z,8.34
2023-01-25T10:47:52.984Z,8.38
2023-01-25T10:50:45.140Z,8.38
2023-01-25T10:53:44.218Z,8.38
2023-01-25T10:56:30.961Z,8.35
2023-01-25T10:59:23.001Z,8.34
2023-01-25T11:02:38.345Z,8.37
2023-01-25T11:05:33.604Z,8.39
2023-01-25T11:08:31.511Z,8.39
2023-01-25T11:11:27.117Z,8.45
2023-01-25T11:14:18.031Z,8.43
2023-01-25T11:17:05.945Z,8.44
2023-01-25T11:20:08.434Z,8.47
2023-01-25T11:22:56.914Z,8.48
2023-01-25T11:25:42.184Z,8.48
2023-01-25T11:28:27.541Z,8.44
2023-01-25T11:31:14.954Z,8.45
2023-01-25T11:34:00.819Z,8.44
2023-01-25T11:37:08.037Z,8.46
2023-01-25T11:40:03.533Z,8.44
2023-01-25T11:42:48.813Z,8.47
2023-01-25T11:46:04.359Z,8.48
2023-01-25T11:49:04.135Z,8.37
2023-01-25T11:52:03.396Z,8.39
2023-01-25T11:55:12.810Z,8.37
2023-01-25T11:58:25.932Z,8.31
2023-01-25T12:01:30.180Z,8.27
2023-01-25T12:04:34.719Z,8.27
2023-01-25T12:07:53.879Z,8.28
2023-01-25T12:10:58.789Z,8.30
2023-01-25T12:14:12.295Z,8.35
2023-01-25T12:17:08.197Z,8.37
2023-01-25T12:19:59.935Z,8.34
2023-01-25T12:22:45.441Z,8.37
2023-01-25T12:25:56.856Z,8.35
2023-01-25T12:28:48.462Z,8.34
2023-01-25T12:31:51.132Z,8.31
2023-01-25T12:34:40.617Z,8.34
2023-01-25T12:37:37.699Z,8.33
2023-01-25T12:40:50.693Z,8.34
2023-01-25T12:43:45.457Z,8.35
2023-01-25T12:46:37.209Z,8.36
2023-01-25T12:49:43.999Z,8.34
2023-01-25T12:52:40.564Z,8.28
2023-01-25T12:55:26.316Z,8.27
2023-01-25T12:58:38.552Z,8.25
2023-01-25T13:01:51.511Z,8.29
2023-01-25T13:05:14.576Z,8.30
2023-01-25T13:08:31.067Z,8.29
2023-01-25T13:11:44.036Z,8.29
2023-01-25T13:14:38.659Z,8.22
2023-01-25T13:17:40.040Z,8.16
2023-01-25T13:20:41.128Z,8.12
2023-01-25T13:23:33.215Z,8.18
2023-01-25T13:26:21.592Z,8.30
2023-01-25T13:29:32.377Z,8.45
2023-01-25T13:32:33.350Z,8.49
2023-01-25T13:35:39.378Z,8.55
2023-01-25T13:38:35.756Z,8.58
2023-01-25T13:41:21.840Z,8.64
2023-01-25T13:44:28.521Z,8.78
2023-01-25T13:47:18.220Z,8.95
2023-01-25T13:50:24.177Z,9.15
2023-01-25T13:53:15.474Z,9.12
2023-01-25T13:56:02.440Z,9.10
2023-01-25T13:58:50.569Z,8.98
2023-01-25T14:01:36.748Z,8.81
2023-01-25T14:04:22.832Z,8.65
2023-01-25T14:07:17.093Z,8.58
2023-01-25T14:10:11.568Z,8.56
2023-01-25T14:13:01.270Z,8.52
2023-01-25T14:15:58.730Z,8.46
2023-01-25T14:18:45.389Z,8.41
2023-01-25T14:21:30.962Z,8.40
2023-01-25T14:24:19.705Z,8.33
2023-01-25T14:27:06.067Z,8.28
2023-01-25T14:29:51.553Z,8.20
2023-01-25T14:32:37.149Z,8.13
2023-01-25T14:35:49.844Z,8.20
2023-01-25T14:38:41.403Z,8.34
2023-01-25T14:41:33.943Z,8.38
2023-01-25T14:44:20.367Z,8.31
2023-01-25T14:47:32.021Z,8.23
2023-01-25T14:50:37.561Z,8.24
2023-01-25T14:53:25.403Z,8.32
2023-01-25T14:56:27.540Z,8.38
2023-01-25T14:59:38.091Z,8.43
2023-01-25T15:02:53.835Z,8.42
2023-01-25T15:05:46.683Z,8.50
2023-01-25T15:08:40.796Z,8.54
2023-01-25T15:11:37.817Z,8.59
2023-01-25T15:14:23.398Z,8.51
2023-01-25T15:17:43.231Z,8.43
2023-01-25T15:20:39.679Z,8.31
2023-01-25T15:23:27.603Z,8.20
2023-01-25T15:26:33.861Z,8.08
2023-01-25T15:29:28.976Z,8.01
2023-01-25T15:32:21.895Z,7.88
2023-01-25T15:35:15.906Z,7.78
2023-01-25T15:38:01.432Z,7.72
2023-01-25T15:40:47.044Z,7.63
2023-01-25T15:43:32.405Z,7.56
2023-01-25T15:46:24.922Z,7.46
2023-01-25T15:49:17.477Z,7.43
2023-01-25T15:52:02.566Z,7.41
2023-01-25T15:54:55.926Z,7.32
2023-01-25T15:57:47.076Z,7.22
2023-01-25T16:00:33.666Z,7.18
2023-01-25T16:03:21.936Z,7.12
2023-01-25T16:06:36.503Z,7.00
2023-01-25T16:09:24.735Z,6.90
2023-01-25T16:12:10.316Z,6.91
2023-01-25T16:14:55.907Z,6.91
2023-01-25T16:17:41.492Z,6.83
2023-01-25T16:20:26.884Z,6.78
2023-01-25T16:23:12.449Z,6.74
2023-01-25T16:25:58.020Z,6.68
2023-01-25T16:28:43.460Z,6.60
2023-01-25T16:31:33.501Z,6.49
2023-01-25T16:34:20.460Z,6.42
2023-01-25T16:37:06.313Z,6.35
2023-01-25T16:39:53.727Z,6.26
2023-01-25T16:42:39.183Z,6.11
2023-01-25T16:45:24.385Z,6.04
2023-01-25T16:48:15.887Z,6.00
2023-01-25T16:51:02.541Z,5.87
2023-01-25T16:53:48.904Z,5.74
2023-01-25T16:56:34.518Z,5.69
2023-01-25T16:59:22.051Z,5.61
2023-01-25T17:02:11.226Z,5.57
2023-01-25T17:04:56.808Z,5.53
2023-01-25T17:07:42.089Z,5.47
2023-01-25T17:10:29.049Z,5.47
2023-01-25T17:13:14.783Z,5.44
2023-01-25T17:16:01.173Z,5.45
2023-01-25T17:18:47.539Z,5.44
2023-01-25T17:21:34.234Z,5.37
2023-01-25T17:24:21.803Z,5.33
2023-01-25T17:27:07.547Z,5.27
2023-01-25T17:29:52.720Z,5.16
2023-01-25T17:32:38.048Z,5.10
2023-01-25T17:35:23.433Z,5.09
2023-01-25T17:38:08.998Z,5.00
2023-01-25T17:40:55.433Z,5.01
2023-01-25T17:43:41.753Z,5.02
2023-01-25T17:46:30.211Z,4.99
2023-01-25T17:49:17.279Z,4.94
2023-01-25T17:52:02.939Z,4.91
2023-01-25T17:54:48.446Z,4.83
2023-01-25T17:57:35.552Z,4.85
2023-01-25T18:00:21.655Z,4.78
2023-01-25T18:03:07.352Z,4.70
2023-01-25T18:05:59.119Z,4.68
2023-01-25T18:08:49.616Z,4.69
2023-01-25T18:11:37.396Z,4.76
2023-01-25T18:14:22.829Z,4.77
2023-01-25T18:17:08.138Z,4.76
2023-01-25T18:19:54.556Z,4.70
2023-01-25T18:22:41.895Z,4.69
2023-01-25T18:25:35.882Z,4.70
2023-01-25T18:28:21.263Z,4.66
2023-01-25T18:31:07.345Z,4.60
2023-01-25T18:33:52.669Z,4.64
2023-01-25T18:36:37.777Z,4.67
2023-01-25T18:39:23.139Z,4.71
2023-01-25T18:42:08.512Z,4.71
2023-01-25T18:44:54.171Z,4.69
2023-01-25T18:47:39.861Z,4.68
2023-01-25T18:50:25.082Z,4.65
2023-01-25T18:53:10.557Z,4.64
2023-01-25T18:56:01.410Z,4.65
2023-01-25T18:58:47.308Z,4.72
2023-01-25T19:01:33.021Z,4.74
2023-01-25T19:04:18.395Z,4.74
2023-01-25T19:07:04.808Z,4.69
2023-01-25T19:09:50.419Z,4.66
2023-01-25T19:12:36.222Z,4.64
2023-01-25T19:15:21.528Z,4.56
2023-01-25T19:18:07.006Z,4.49
2023-01-25T19:20:52.206Z,4.28
2023-01-25T19:23:39.967Z,4.04
2023-01-25T19:26:26.246Z,3.78
2023-01-25T19:29:14.228Z,3.61
2023-01-25T19:31:59.853Z,3.62
2023-01-25T19:34:45.188Z,3.65
2023-01-25T19:37:30.472Z,3.72
2023-01-25T19:40:16.026Z,3.77
2023-01-25T19:43:01.296Z,3.85
2023-01-25T19:45:46.670Z,3.88
2023-01-25T19:48:34.619Z,3.94
2023-01-25T19:51:26.564Z,3.92
2023-01-25T19:54:16.772Z,3.71
2023-01-25T19:57:02.319Z,3.55
2023-01-25T19:59:48.321Z,3.39
2023-01-25T20:02:34.167Z,3.18
2023-01-25T20:05:21.085Z,3.07
2023-01-25T20:08:06.670Z,3.07
2023-01-25T20:10:52.062Z,3.13
2023-01-25T20:13:37.647Z,3.24
2023-01-25T20:16:24.872Z,3.28
2023-01-25T20:19:12.293Z,3.33
2023-01-25T20:22:00.343Z,3.33
2023-01-25T20:24:45.868Z,3.35
2023-01-25T20:27:31.172Z,3.36
2023-01-25T20:30:17.193Z,3.33
2023-01-25T20:33:02.406Z,3.25
2023-01-25T20:35:48.157Z,3.20
2023-01-25T20:38:36.093Z,3.01
2023-01-25T20:41:21.374Z,2.91
2023-01-25T20:44:10.124Z,2.73
2023-01-25T20:46:55.873Z,2.64
2023-01-25T20:49:41.221Z,2.68
2023-01-25T20:52:27.530Z,3.27
2023-01-25T20:55:13.301Z,3.62
2023-01-25T20:57:58.946Z,3.68
2023-01-25T21:00:44.278Z,3.77
2023-01-25T21:03:30.178Z,3.96
2023-01-25T21:06:17.267Z,3.95
2023-01-25T21:09:04.047Z,3.91
2023-01-25T21:11:49.648Z,3.85
2023-01-25T21:14:35.218Z,3.77
2023-01-25T21:17:20.572Z,3.84
2023-01-25T21:20:07.341Z,3.83
2023-01-25T21:22:52.729Z,3.77
2023-01-25T21:25:38.024Z,3.70
2023-01-25T21:28:23.607Z,3.60
2023-01-25T21:31:18.575Z,3.42
2023-01-25T21:34:06.543Z,3.22
2023-01-25T21:36:51.962Z,3.04
2023-01-25T21:39:37.408Z,2.91
2023-01-25T21:42:22.847Z,2.89
2023-01-25T21:45:29.299Z,2.93
2023-01-25T21:48:34.886Z,3.02
2023-01-25T21:51:35.531Z,3.04
2023-01-25T21:54:32.653Z,3.10
2023-01-25T21:57:18.391Z,3.08
2023-01-25T22:00:05.536Z,3.07
2023-01-25T22:02:52.117Z,3.13
2023-01-25T22:05:37.567Z,3.05
2023-01-25T22:08:22.765Z,3.05
2023-01-25T22:11:08.771Z,2.98
2023-01-25T22:13:54.891Z,2.94
2023-01-25T22:16:40.773Z,3.10
2023-01-25T22:19:26.377Z,3.27
2023-01-25T22:22:11.719Z,3.33
2023-01-25T22:24:57.039Z,3.35
2023-01-25T22:27:55.819Z,3.28
2023-01-25T22:30:41.550Z,3.21
2023-01-25T22:33:27.065Z,3.20
2023-01-25T22:36:14.265Z,3.21
2023-01-25T22:39:02.431Z,3.32
2023-01-25T22:41:48.039Z,3.44
2023-01-25T22:44:33.438Z,3.51
2023-01-25T22:47:18.867Z,3.58
2023-01-25T22:50:04.492Z,3.60
2023-01-25T22:52:50.030Z,3.66
2023-01-25T22:55:35.372Z,3.73
2023-01-25T22:58:20.807Z,3.79
2023-01-25T23:01:10.920Z,3.78
2023-01-25T23:03:57.429Z,3.75
2023-01-25T23:06:43.126Z,3.62
2023-01-25T23:09:29.462Z,3.45
2023-01-25T23:12:15.659Z,3.22
2023-01-25T23:15:07.110Z,2.95
2023-01-25T23:18:10.774Z,2.68
2023-01-25T23:20:56.243Z,2.53
2023-01-25T23:23:41.733Z,2.53
2023-01-25T23:26:30.258Z,2.62
2023-01-25T23:29:15.570Z,2.73
2023-01-25T23:32:00.941Z,2.87
2023-01-25T23:34:46.202Z,3.00
2023-01-25T23:37:31.556Z,3.09
2023-01-25T23:40:17.168Z,3.21
2023-01-25T23:43:02.620Z,3.32
2023-01-25T23:45:48.117Z,3.40
2023-01-25T23:48:34.151Z,3.45
2023-01-25T23:51:20.261Z,3.50
2023-01-25T23:54:05.882Z,3.55
2023-01-25T23:56:51.190Z,3.61
2023-01-25T23:59:36.604Z,3.68
